GRZ576 Details

Departure: King Salmon Airport (PAKN)
Arrival: Dillingham Airport (PADL)
Route: AKN V453 DLG


Current Weather Information
PAKN 231354Z AUTO 09012KT 10SM SCT049 BKN055 07/04 A2862 RMK AO2 SLP692 T00720039 TSNO
PADL 231356Z AUTO 06022G30KT 10SM SCT013 SCT019 OVC024 04/03 A2869 RMK AO2 PK WND 07032/1324 RAE46 SLP717 P0000 T00440033